Time;durP1;ratioP1;P1;durP2;ratioP2;P2;SDS_P1;SDS_P2;PMS_P1;PMS_P2;Temp;Humidity;BMP_temperature;BMP_pressure;BME280_temperature;BME280_humidity;BME280_pressure;Samples;Min_cycle;Max_cycle;Signal;HPM_P1;HPM_P2
2022/11/01 00:00:20;;;;;;;61.95;37.60;;;12.60;99.90;;;;;;5008751;28;20037;-52
2022/11/01 00:02:45;;;;;;;61.92;36.03;;;12.60;99.90;;;;;;4991791;28;20030;-51
2022/11/01 00:05:11;;;;;;;61.25;34.85;;;12.60;99.90;;;;;;5002671;28;20560;-52
2022/11/01 00:07:36;;;;;;;62.17;35.58;;;12.60;99.90;;;;;;4991899;28;20441;-50
2022/11/01 00:10:02;;;;;;;54.08;33.17;;;12.60;99.90;;;;;;5008268;28;20037;-48
2022/11/01 00:12:30;;;;;;;53.95;32.30;;;12.60;99.90;;;;;;5011107;28;20033;-53
2022/11/01 00:14:55;;;;;;;60.88;36.20;;;12.60;99.90;;;;;;4996004;28;20040;-48
2022/11/01 00:17:21;;;;;;;63.95;38.22;;;12.60;99.90;;;;;;5011069;28;20482;-49
2022/11/01 00:19:46;;;;;;;54.20;34.22;;;12.60;99.90;;;;;;4994815;28;20088;-52
2022/11/01 00:22:12;;;;;;;61.10;31.38;;;12.60;99.90;;;;;;5011087;28;20363;-51
2022/11/01 00:24:37;;;;;;;61.78;37.17;;;12.60;99.90;;;;;;4993746;28;20037;-51
2022/11/01 00:27:03;;;;;;;60.03;36.92;;;12.60;99.90;;;;;;5010859;28;20174;-52
2022/11/01 00:29:28;;;;;;;61.53;36.40;;;12.60;99.90;;;;;;4992404;28;20635;-54
2022/11/01 00:31:54;;;;;;;54.70;33.63;;;12.60;99.90;;;;;;5010551;28;20679;-53
2022/11/01 00:34:19;;;;;;;62.20;37.20;;;12.60;99.90;;;;;;4990909;28;20046;-54
2022/11/01 00:36:45;;;;;;;50.08;32.03;;;12.60;99.90;;;;;;5010473;28;20533;-49
2022/11/01 00:39:13;;;;;;;57.42;34.20;;;12.60;99.90;;;;;;5000009;28;20050;-50
2022/11/01 00:41:38;;;;;;;63.55;38.10;;;12.60;99.90;;;;;;5010641;28;20453;-49
2022/11/01 00:44:04;;;;;;;54.00;34.65;;;12.60;99.90;;;;;;4991095;28;20048;-48
2022/11/01 00:46:30;;;;;;;52.45;34.13;;;12.60;99.90;;;;;;5008056;28;20080;-51
2022/11/01 00:48:56;;;;;;;66.88;37.45;;;12.60;99.90;;;;;;4990897;28;20049;-50
2022/11/01 00:51:21;;;;;;;57.05;36.28;;;12.60;99.90;;;;;;4990239;28;20117;-54
2022/11/01 00:53:47;;;;;;;57.75;34.15;;;12.50;99.90;;;;;;5009404;28;20061;-50
2022/11/01 00:56:13;;;;;;;51.65;35.10;;;12.60;99.90;;;;;;4989363;28;20031;-53
2022/11/01 00:58:38;;;;;;;60.88;38.03;;;12.50;99.90;;;;;;5009469;28;20273;-52
2022/11/01 01:01:04;;;;;;;51.90;31.70;;;12.50;99.90;;;;;;4989164;28;20026;-53
2022/11/01 01:03:29;;;;;;;46.97;28.55;;;12.60;99.90;;;;;;5009466;28;20041;-53
2022/11/01 01:05:55;;;;;;;43.35;27.02;;;12.60;99.90;;;;;;4982577;28;20041;-53
2022/11/01 01:08:21;;;;;;;46.35;28.50;;;12.60;99.90;;;;;;5009386;28;20497;-51
2022/11/01 01:10:47;;;;;;;48.55;30.33;;;12.50;99.90;;;;;;4988849;28;20034;-53
2022/11/01 01:13:12;;;;;;;44.83;26.73;;;12.50;99.90;;;;;;5009091;28;20045;-51
2022/11/01 01:15:38;;;;;;;46.13;28.77;;;12.50;99.90;;;;;;4988893;28;20116;-54
2022/11/01 01:18:04;;;;;;;40.65;25.77;;;12.40;99.90;;;;;;5008828;28;20033;-52
2022/11/01 01:20:30;;;;;;;42.25;27.40;;;12.40;99.90;;;;;;4989016;28;20030;-54
2022/11/01 01:22:55;;;;;;;50.47;29.35;;;12.40;99.90;;;;;;5008675;28;20109;-50
2022/11/01 01:25:21;;;;;;;49.47;30.52;;;12.40;99.90;;;;;;4998687;28;20030;-53
2022/11/01 01:27:46;;;;;;;45.90;29.65;;;12.30;99.90;;;;;;4990403;28;20030;-53
2022/11/01 01:30:13;;;;;;;52.25;31.48;;;12.30;99.90;;;;;;5007014;28;20026;-52
2022/11/01 01:32:39;;;;;;;53.78;31.60;;;12.30;99.90;;;;;;4990361;28;20026;-49
2022/11/01 01:35:05;;;;;;;45.65;26.27;;;12.20;99.90;;;;;;5006621;28;20099;-50
2022/11/01 01:37:30;;;;;;;56.15;29.95;;;12.20;99.90;;;;;;5009509;28;20048;-54
2022/11/01 01:39:55;;;;;;;47.30;29.60;;;12.20;99.90;;;;;;4993988;28;20457;-52
2022/11/01 01:42:50;;;;;;;44.92;28.75;;;12.10;99.90;;;;;;5007820;28;20121;-52
2022/11/01 01:45:27;;;;;;;50.50;31.23;;;12.10;99.90;;;;;;4985633;28;20053;-53
2022/11/01 01:47:53;;;;;;;48.97;29.10;;;12.10;99.90;;;;;;4970026;28;20034;-51
2022/11/01 01:50:25;;;;;;;54.00;30.30;;;12.00;99.90;;;;;;5006432;28;20030;-52
2022/11/01 01:53:03;;;;;;;54.70;31.38;;;12.00;99.90;;;;;;4970207;28;20042;-48
2022/11/01 01:56:15;;;;;;;54.75;29.35;;;12.00;99.90;;;;;;4989757;28;20045;-52
2022/11/01 01:58:47;;;;;;;66.45;36.70;;;12.00;99.90;;;;;;4988634;28;20038;-52
2022/11/01 02:01:12;;;;;;;63.42;38.20;;;12.00;99.90;;;;;;4987567;28;20038;-52
2022/11/01 02:03:40;;;;;;;67.75;40.70;;;12.00;99.90;;;;;;5008297;28;20394;-53
2022/11/01 02:06:11;;;;;;;71.15;41.95;;;12.10;99.90;;;;;;4984991;28;20538;-52
2022/11/01 02:08:42;;;;;;;63.92;37.42;;;12.10;99.90;;;;;;5008577;28;20379;-54
2022/11/01 02:11:09;;;;;;;63.47;38.75;;;12.20;99.90;;;;;;4987340;28;20033;-51
2022/11/01 02:13:35;;;;;;;68.68;42.17;;;12.20;99.90;;;;;;5008004;28;20069;-51
2022/11/01 02:16:25;;;;;;;67.82;41.50;;;12.20;99.90;;;;;;4987892;28;20030;-53
2022/11/01 02:18:58;;;;;;;60.65;38.00;;;12.20;99.90;;;;;;4969765;28;20027;-53
2022/11/01 02:21:43;;;;;;;53.85;31.25;;;12.20;99.90;;;;;;4986095;28;20057;-54
2022/11/01 02:24:17;;;;;;;55.17;33.33;;;12.20;99.90;;;;;;4969580;28;20483;-52
2022/11/01 02:26:48;;;;;;;50.03;28.48;;;12.20;99.90;;;;;;4969407;28;20039;-53
2022/11/01 02:29:22;;;;;;;41.47;26.42;;;12.20;99.90;;;;;;5006029;28;20509;-53
2022/11/01 02:32:16;;;;;;;43.22;24.35;;;12.20;99.90;;;;;;5008282;28;20393;-54
2022/11/01 02:35:07;;;;;;;51.47;29.25;;;12.20;99.90;;;;;;4976390;28;20037;-54
2022/11/01 02:37:40;;;;;;;53.63;32.15;;;12.10;99.90;;;;;;5008669;28;20049;-52
2022/11/01 02:40:12;;;;;;;49.17;29.17;;;12.10;99.90;;;;;;4994743;28;20048;-50
2022/11/01 02:42:44;;;;;;;55.28;33.15;;;12.10;99.90;;;;;;4969717;28;20037;-54
2022/11/01 02:45:27;;;;;;;54.20;30.85;;;12.10;99.90;;;;;;4982617;28;20042;-54
2022/11/01 02:47:56;;;;;;;61.75;32.50;;;12.10;99.90;;;;;;4969336;28;20031;-51
2022/11/01 02:50:23;;;;;;;61.22;34.95;;;12.00;99.90;;;;;;5006107;28;20030;-54
2022/11/01 02:52:50;;;;;;;59.40;33.33;;;12.00;99.90;;;;;;4992143;28;20121;-54
2022/11/01 02:55:32;;;;;;;55.08;32.15;;;12.00;99.90;;;;;;5009820;28;20042;-50
2022/11/01 02:58:13;;;;;;;51.75;30.70;;;12.00;99.90;;;;;;4973418;28;20038;-54
2022/11/01 03:00:39;;;;;;;52.22;30.48;;;11.90;99.90;;;;;;4995357;28;20037;-53
2022/11/01 03:03:22;;;;;;;62.38;32.60;;;11.90;99.90;;;;;;4992069;28;20080;-54
2022/11/01 03:06:00;;;;;;;54.50;32.75;;;11.80;99.90;;;;;;4990109;28;20030;-54
2022/11/01 03:08:41;;;;;;;51.22;31.05;;;11.80;99.90;;;;;;4973300;28;20035;-51
2022/11/01 03:11:12;;;;;;;54.47;33.20;;;11.80;99.90;;;;;;4986953;28;20039;-55
2022/11/01 03:13:40;;;;;;;63.38;36.75;;;11.70;99.90;;;;;;4973032;28;20086;-51
2022/11/01 03:16:34;;;;;;;66.65;35.58;;;11.70;99.90;;;;;;4994019;28;20105;-50
2022/11/01 03:19:17;;;;;;;44.53;27.83;;;11.70;99.90;;;;;;4973244;28;20037;-51
2022/11/01 03:21:52;;;;;;;57.83;33.47;;;11.60;99.90;;;;;;4992628;28;20022;-48
2022/11/01 03:24:27;;;;;;;60.50;34.20;;;11.60;99.90;;;;;;4973277;28;20293;-49
2022/11/01 03:27:31;;;;;;;73.22;37.42;;;11.60;99.90;;;;;;5011977;28;20025;-54
2022/11/01 03:30:08;;;;;;;62.67;35.22;;;11.50;99.90;;;;;;4996655;28;20030;-52
2022/11/01 03:32:40;;;;;;;63.05;36.28;;;11.50;99.90;;;;;;5010336;28;20022;-53
2022/11/01 03:35:10;;;;;;;64.78;38.33;;;11.50;99.90;;;;;;4986952;28;20022;-50
2022/11/01 03:37:39;;;;;;;64.53;36.80;;;11.50;99.90;;;;;;4992123;28;20034;-50
2022/11/01 03:40:06;;;;;;;56.70;32.88;;;11.60;99.90;;;;;;5008989;28;20084;-50
2022/11/01 03:42:33;;;;;;;63.63;36.88;;;11.50;99.90;;;;;;5011409;28;20038;-51
2022/11/01 03:45:05;;;;;;;67.47;34.92;;;11.60;99.90;;;;;;4996997;28;20510;-49
2022/11/01 03:47:31;;;;;;;75.53;39.28;;;11.60;99.90;;;;;;5011514;28;20498;-49
2022/11/01 03:50:22;;;;;;;60.53;32.20;;;11.60;99.90;;;;;;4996517;28;20092;-52
2022/11/01 03:52:48;;;;;;;61.28;34.08;;;11.50;99.90;;;;;;4972002;28;20555;-49
2022/11/01 03:55:18;;;;;;;60.63;30.02;;;11.60;99.90;;;;;;5008339;28;20038;-48
2022/11/01 03:57:54;;;;;;;66.25;32.67;;;11.60;99.90;;;;;;4972380;28;20030;-46
2022/11/01 04:00:28;;;;;;;60.97;32.00;;;11.50;99.90;;;;;;4989457;28;20474;-49
2022/11/01 04:02:54;;;;;;;72.43;35.90;;;11.60;99.90;;;;;;4972031;28;20053;-49
2022/11/01 04:05:22;;;;;;;85.22;40.70;;;11.60;99.90;;;;;;5001888;28;20485;-47
2022/11/01 04:07:48;;;;;;;70.10;34.90;;;11.60;99.90;;;;;;4991734;28;20267;-51
2022/11/01 04:10:14;;;;;;;51.13;28.65;;;11.60;99.90;;;;;;5008668;28;20105;-48
2022/11/01 04:12:43;;;;;;;63.88;32.03;;;11.60;99.90;;;;;;4991464;28;20034;-49
2022/11/01 04:21:13;;;;;;;58.22;32.13;;;11.50;99.90;;;;;;4985439;28;20438;-51
2022/11/01 04:23:39;;;;;;;93.65;40.22;;;11.50;99.90;;;;;;4970394;28;20430;-49
2022/11/01 04:26:06;;;;;;;73.07;34.08;;;11.40;99.90;;;;;;4992504;28;20482;-48
2022/11/01 04:28:31;;;;;;;76.57;38.80;;;11.40;99.90;;;;;;5009823;28;20068;-47
2022/11/01 04:30:57;;;;;;;74.10;39.35;;;11.40;99.90;;;;;;4989820;28;20442;-48
2022/11/01 04:33:22;;;;;;;66.80;31.88;;;11.40;99.90;;;;;;5009772;28;20117;-49
2022/11/01 04:35:48;;;;;;;65.47;33.95;;;11.30;99.90;;;;;;4989798;28;20058;-48
2022/11/01 04:38:14;;;;;;;61.17;33.70;;;11.30;99.90;;;;;;5006865;28;20125;-47
2022/11/01 04:40:41;;;;;;;66.05;34.28;;;11.30;99.90;;;;;;5001034;28;20524;-51
2022/11/01 04:43:07;;;;;;;71.60;35.50;;;11.20;99.90;;;;;;4991195;28;20039;-49
2022/11/01 04:45:32;;;;;;;62.35;35.88;;;11.10;99.90;;;;;;4996592;28;20034;-47
2022/11/01 04:48:05;;;;;;;50.53;29.00;;;11.10;99.90;;;;;;5009639;28;20036;-53
2022/11/01 04:50:31;;;;;;;60.10;31.10;;;11.10;99.90;;;;;;4999775;28;20062;-50
2022/11/01 04:52:58;;;;;;;47.83;27.50;;;11.10;99.90;;;;;;4990994;28;20121;-47
2022/11/01 04:55:24;;;;;;;78.53;39.38;;;11.00;99.90;;;;;;5007798;28;20088;-47
2022/11/01 04:57:50;;;;;;;67.40;36.25;;;11.00;99.90;;;;;;4991076;28;20086;-47
2022/11/01 05:00:16;;;;;;;69.50;35.90;;;11.00;99.90;;;;;;5007342;28;20109;-48
2022/11/01 05:02:41;;;;;;;74.50;39.15;;;11.00;99.90;;;;;;4990822;28;20030;-49
2022/11/01 05:05:08;;;;;;;67.15;37.03;;;11.00;99.90;;;;;;5002307;28;20034;-52
2022/11/01 05:07:34;;;;;;;61.15;33.85;;;11.00;99.90;;;;;;4990494;28;20054;-49
2022/11/01 05:10:01;;;;;;;77.45;38.60;;;11.00;99.90;;;;;;5007635;28;20041;-47
2022/11/01 05:12:27;;;;;;;70.25;40.65;;;11.00;99.90;;;;;;5009706;28;20037;-49
2022/11/01 05:14:52;;;;;;;82.15;45.30;;;11.00;99.90;;;;;;4994228;28;20045;-49
2022/11/01 05:17:18;;;;;;;88.13;45.30;;;11.00;99.90;;;;;;5009356;28;20040;-50
2022/11/01 05:19:43;;;;;;;80.80;41.00;;;11.10;99.90;;;;;;4993240;28;20500;-46
2022/11/01 05:22:08;;;;;;;83.43;42.92;;;11.10;99.90;;;;;;5009807;28;20014;-48
2022/11/01 05:24:34;;;;;;;80.03;40.30;;;11.10;99.90;;;;;;4991945;28;20061;-49
2022/11/01 05:26:59;;;;;;;81.57;42.67;;;11.10;99.90;;;;;;5009821;28;20442;-48
2022/11/01 05:29:26;;;;;;;73.35;40.38;;;11.10;99.90;;;;;;4990646;28;20034;-48
2022/11/01 05:31:51;;;;;;;74.35;37.85;;;11.10;99.90;;;;;;5009837;28;20018;-48
2022/11/01 05:34:17;;;;;;;84.85;42.00;;;11.10;99.90;;;;;;4987878;28;20039;-47
2022/11/01 05:36:43;;;;;;;80.45;42.38;;;11.10;99.90;;;;;;5009435;28;20026;-48
2022/11/01 05:39:08;;;;;;;81.13;42.22;;;11.00;99.90;;;;;;5000551;28;20042;-50
2022/11/01 05:41:34;;;;;;;78.72;41.85;;;11.00;99.90;;;;;;5007359;28;20454;-49
2022/11/01 05:43:59;;;;;;;86.80;42.10;;;11.10;99.90;;;;;;4990350;28;20049;-47
2022/11/01 05:46:25;;;;;;;71.55;36.50;;;11.00;99.90;;;;;;4988306;28;20050;-50
2022/11/01 05:48:50;;;;;;;82.78;39.53;;;11.00;99.90;;;;;;5008817;28;20038;-49
2022/11/01 05:51:16;;;;;;;76.90;39.45;;;11.00;99.90;;;;;;4988140;28;20034;-48
2022/11/01 05:53:41;;;;;;;62.30;36.03;;;11.00;99.90;;;;;;5008371;28;20064;-50
2022/11/01 05:56:07;;;;;;;93.55;45.33;;;11.00;99.90;;;;;;4988160;28;20105;-48
2022/11/01 05:58:32;;;;;;;91.32;43.35;;;11.00;99.90;;;;;;5008299;28;20026;-49
2022/11/01 06:00:59;;;;;;;87.50;44.55;;;11.00;99.90;;;;;;4988218;28;20026;-47
2022/11/01 06:03:24;;;;;;;92.68;43.92;;;11.00;99.90;;;;;;5008243;28;20350;-49
2022/11/01 06:05:50;;;;;;;79.10;40.42;;;11.00;99.90;;;;;;4984989;28;20506;-53
2022/11/01 06:08:15;;;;;;;73.80;36.70;;;11.00;99.90;;;;;;5008055;28;20213;-48
2022/11/01 06:10:41;;;;;;;80.55;38.83;;;11.00;99.90;;;;;;4988064;28;20372;-50
2022/11/01 06:13:07;;;;;;;75.50;39.80;;;11.00;99.90;;;;;;5008073;28;20033;-47
2022/11/01 06:15:32;;;;;;;82.05;41.13;;;11.00;99.90;;;;;;4987878;28;20077;-49
2022/11/01 06:17:58;;;;;;;64.93;33.05;;;11.00;99.90;;;;;;5008049;28;20034;-48
2022/11/01 06:20:25;;;;;;;78.80;40.65;;;11.00;99.90;;;;;;4997573;28;20441;-51
2022/11/01 06:22:51;;;;;;;68.78;37.15;;;11.00;99.90;;;;;;4989436;28;20519;-46
2022/11/01 06:25:17;;;;;;;93.80;43.72;;;11.00;99.90;;;;;;5005962;28;20039;-47
2022/11/01 06:27:42;;;;;;;67.30;35.92;;;11.10;99.90;;;;;;4989189;28;20037;-48
2022/11/01 06:30:08;;;;;;;82.57;39.92;;;11.10;99.90;;;;;;5006283;28;20742;-48
2022/11/01 06:32:34;;;;;;;81.85;39.70;;;11.10;99.90;;;;;;4989100;28;20061;-47
2022/11/01 06:34:59;;;;;;;67.57;35.60;;;11.20;99.90;;;;;;5005932;28;20620;-49
2022/11/01 06:37:25;;;;;;;76.55;39.45;;;11.20;99.90;;;;;;5008528;28;20084;-47
2022/11/01 06:39:50;;;;;;;76.05;36.97;;;11.20;99.90;;;;;;4992979;28;20045;-51
2022/11/01 06:42:16;;;;;;;69.35;37.28;;;11.20;99.90;;;;;;5008667;28;20407;-48
2022/11/01 06:44:41;;;;;;;74.80;40.22;;;11.30;99.90;;;;;;4991938;28;20033;-50
2022/11/01 06:47:07;;;;;;;68.70;37.53;;;11.30;99.90;;;;;;5008654;28;20026;-53
2022/11/01 06:49:33;;;;;;;75.15;37.03;;;11.30;99.90;;;;;;4990525;28;20030;-48
2022/11/01 06:51:58;;;;;;;81.75;41.17;;;11.30;99.90;;;;;;5008551;28;20025;-53
2022/11/01 06:54:24;;;;;;;83.68;43.50;;;11.30;99.90;;;;;;4989097;28;20446;-50
2022/11/01 06:56:50;;;;;;;89.43;46.22;;;11.40;99.90;;;;;;5008521;28;20026;-49
2022/11/01 06:59:15;;;;;;;79.20;41.97;;;11.40;99.90;;;;;;4988020;28;20034;-49
2022/11/01 07:01:42;;;;;;;82.25;43.42;;;11.40;99.90;;;;;;5008506;28;20018;-49
2022/11/01 07:04:07;;;;;;;68.43;36.58;;;11.40;99.90;;;;;;4989145;28;20029;-47
2022/11/01 07:06:33;;;;;;;68.43;37.70;;;11.50;99.90;;;;;;5000768;28;20135;-50
2022/11/01 07:08:59;;;;;;;63.45;33.65;;;11.60;99.90;;;;;;4989296;28;20042;-47
2022/11/01 07:11:25;;;;;;;58.47;34.28;;;11.80;99.90;;;;;;4987720;28;20068;-47
2022/11/01 07:13:50;;;;;;;68.90;34.10;;;11.80;99.90;;;;;;5007654;28;20494;-47
2022/11/01 07:16:16;;;;;;;62.55;32.88;;;11.90;99.90;;;;;;4987294;28;20026;-48
2022/11/01 07:18:43;;;;;;;54.33;29.75;;;12.00;99.90;;;;;;5007686;28;20037;-48
2022/11/01 07:21:08;;;;;;;60.70;32.60;;;12.00;99.90;;;;;;4987285;28;20042;-47
2022/11/01 07:23:34;;;;;;;67.10;37.10;;;12.10;99.90;;;;;;5007348;28;20198;-47
2022/11/01 07:25:59;;;;;;;58.58;32.72;;;12.00;99.90;;;;;;4987385;28;20038;-47
2022/11/01 07:28:25;;;;;;;46.85;26.27;;;12.10;99.90;;;;;;5005910;28;20025;-49
2022/11/01 07:30:52;;;;;;;54.55;28.27;;;12.20;99.90;;;;;;4987385;28;20046;-48
2022/11/01 07:33:18;;;;;;;48.30;28.33;;;12.20;99.90;;;;;;5007265;28;20121;-47
2022/11/01 07:35:44;;;;;;;44.63;27.77;;;12.30;99.90;;;;;;4988035;28;20534;-50
2022/11/01 07:38:10;;;;;;;43.45;26.17;;;12.30;99.90;;;;;;5003389;28;20132;-49
2022/11/01 07:40:36;;;;;;;48.50;28.08;;;12.40;99.90;;;;;;5001623;28;20498;-47
2022/11/01 07:43:03;;;;;;;56.97;30.40;;;12.40;99.90;;;;;;4992482;28;20376;-47
2022/11/01 07:45:30;;;;;;;47.85;29.15;;;12.40;99.90;;;;;;5009042;28;20030;-50
2022/11/01 07:48:01;;;;;;;42.15;26.02;;;12.40;99.90;;;;;;4992021;28;20127;-47
2022/11/01 07:50:27;;;;;;;50.72;28.20;;;12.40;99.90;;;;;;5009318;28;20025;-47
2022/11/01 07:53:03;;;;;;;47.40;28.60;;;12.50;99.90;;;;;;4992188;28;20498;-48
2022/11/01 07:55:28;;;;;;;;;;;12.50;99.90;;;;;;4992386;28;20030;-49
2022/11/01 07:57:54;;;;;;;41.27;25.10;;;12.50;99.90;;;;;;4992122;28;19917;-46
2022/11/01 08:00:20;;;;;;;44.85;26.55;;;12.50;99.90;;;;;;5008761;28;20037;-50
2022/11/01 08:02:45;;;;;;;41.55;25.85;;;12.50;99.90;;;;;;4991934;28;20030;-49
2022/11/01 08:05:11;;;;;;;41.80;24.55;;;12.60;99.90;;;;;;5002405;28;20370;-47
2022/11/01 08:07:38;;;;;;;41.40;26.17;;;12.60;99.90;;;;;;4992297;28;20027;-47
2022/11/01 08:10:08;;;;;;;38.20;25.92;;;12.70;99.90;;;;;;5008474;28;20588;-47
2022/11/01 08:12:34;;;;;;;48.67;26.80;;;12.70;99.90;;;;;;5010775;28;20026;-49
2022/11/01 08:15:01;;;;;;;34.78;22.25;;;12.80;99.90;;;;;;4996775;28;20045;-47
2022/11/01 08:17:27;;;;;;;46.40;25.05;;;12.80;99.90;;;;;;5009397;28;20095;-47
2022/11/01 08:19:53;;;;;;;37.20;23.98;;;12.90;99.90;;;;;;4995722;28;20030;-50
2022/11/01 08:22:18;;;;;;;43.80;25.60;;;13.00;99.90;;;;;;5010825;28;20049;-47
2022/11/01 08:24:44;;;;;;;44.85;24.65;;;13.10;99.90;;;;;;4994387;28;20069;-46
2022/11/01 08:27:09;;;;;;;40.03;25.65;;;13.10;99.90;;;;;;5010817;28;20030;-47
2022/11/01 08:29:35;;;;;;;32.92;22.10;;;13.20;99.90;;;;;;4993174;28;20081;-51
2022/11/01 08:32:00;;;;;;;39.00;23.48;;;13.30;99.90;;;;;;5010727;28;20033;-49
2022/11/01 08:34:26;;;;;;;35.58;20.95;;;13.40;99.90;;;;;;4991427;28;20065;-48
2022/11/01 08:36:51;;;;;;;33.75;20.70;;;13.50;99.90;;;;;;5010770;28;20026;-48
2022/11/01 08:39:17;;;;;;;28.88;17.75;;;13.60;99.90;;;;;;4990308;28;20064;-47
2022/11/01 08:41:46;;;;;;;24.83;17.13;;;13.70;99.90;;;;;;5010931;28;20026;-50
2022/11/01 08:44:11;;;;;;;32.30;18.30;;;13.90;99.90;;;;;;4989459;28;20057;-47
2022/11/01 08:46:37;;;;;;;32.38;19.50;;;14.00;99.90;;;;;;5010344;28;20456;-48
2022/11/01 08:49:02;;;;;;;30.58;17.40;;;14.00;99.90;;;;;;4991295;28;20034;-48
2022/11/01 08:51:28;;;;;;;26.38;18.23;;;14.10;99.90;;;;;;4988860;28;20053;-47
2022/11/01 08:53:55;;;;;;;29.70;18.77;;;14.20;99.90;;;;;;5009453;28;20033;-47
2022/11/01 08:56:23;;;;;;;34.72;20.67;;;14.20;99.90;;;;;;4989342;28;20095;-47
2022/11/01 08:58:49;;;;;;;31.63;19.67;;;14.20;99.90;;;;;;5009520;28;20407;-47
2022/11/01 09:01:14;;;;;;;35.17;17.85;;;14.20;99.90;;;;;;4989461;28;20034;-48
2022/11/01 09:03:40;;;;;;;27.88;16.90;;;14.20;99.90;;;;;;5009125;28;20502;-48
2022/11/01 09:06:05;;;;;;;25.27;17.10;;;14.30;99.90;;;;;;4983954;28;20064;-48
2022/11/01 09:08:30;;;;;;;22.33;15.93;;;14.40;99.90;;;;;;5009679;28;20375;-47
2022/11/01 09:10:57;;;;;;;25.38;14.68;;;14.50;99.90;;;;;;4988876;28;20031;-47
2022/11/01 09:13:23;;;;;;;21.05;13.85;;;14.70;99.90;;;;;;5009508;28;20042;-47
2022/11/01 09:15:48;;;;;;;23.23;14.05;;;14.80;99.90;;;;;;4988715;28;20046;-47
2022/11/01 09:18:14;;;;;;;22.95;14.90;;;15.00;99.90;;;;;;5009187;28;20037;-49
2022/11/01 09:20:39;;;;;;;19.83;13.55;;;15.10;99.90;;;;;;4988773;28;20506;-47
2022/11/01 09:23:05;;;;;;;22.35;13.80;;;15.20;99.90;;;;;;5008962;28;20034;-49
2022/11/01 09:25:30;;;;;;;21.60;14.05;;;15.30;99.90;;;;;;4988830;28;20038;-48
2022/11/01 09:27:56;;;;;;;21.92;13.52;;;15.40;99.90;;;;;;5008590;28;20452;-48
2022/11/01 09:30:22;;;;;;;22.17;12.75;;;15.50;99.90;;;;;;4998407;28;20026;-47
2022/11/01 09:32:48;;;;;;;22.75;13.45;;;15.60;99.90;;;;;;4990066;28;20394;-49
2022/11/01 09:35:13;;;;;;;20.50;12.80;;;15.60;99.90;;;;;;5008147;28;20029;-47
2022/11/01 09:37:39;;;;;;;17.75;12.23;;;15.60;99.90;;;;;;4990115;28;20034;-47
2022/11/01 09:40:05;;;;;;;16.40;11.02;;;15.70;99.90;;;;;;5006603;28;20502;-49
2022/11/01 09:42:35;;;;;;;17.85;13.20;;;15.80;99.90;;;;;;5009461;28;20033;-47
2022/11/01 09:45:23;;;;;;;15.68;11.32;;;15.80;99.90;;;;;;4980553;28;20083;-49
2022/11/01 09:47:53;;;;;;;13.07;9.60;;;15.90;99.90;;;;;;5009309;28;20120;-49
2022/11/01 09:50:24;;;;;;;14.43;10.43;;;16.00;99.90;;;;;;4996910;28;20409;-47
2022/11/01 09:52:50;;;;;;;17.48;10.90;;;16.10;99.90;;;;;;4970487;28;20131;-47
2022/11/01 09:55:23;;;;;;;18.58;10.15;;;16.20;99.90;;;;;;5006598;28;20034;-49
2022/11/01 09:58:24;;;;;;;15.65;9.32;;;16.20;99.90;;;;;;4970103;28;20114;-47
2022/11/01 10:01:42;;;;;;;15.13;9.73;;;16.30;99.90;;;;;;4946132;28;20047;-48
2022/11/01 10:04:37;;;;;;;11.93;8.48;;;16.30;99.90;;;;;;4948348;29;20106;-47
2022/11/01 10:07:18;;;;;;;15.10;8.52;;;16.30;99.90;;;;;;4917220;29;20043;-47
2022/11/01 10:09:56;;;;;;;16.65;9.32;;;16.30;99.90;;;;;;4963179;28;20034;-47
2022/11/01 10:12:54;;;;;;;17.40;8.45;;;16.30;99.90;;;;;;5009362;28;20033;-47
2022/11/01 10:15:45;;;;;;;13.75;8.52;;;16.30;99.90;;;;;;4986424;28;20048;-48
2022/11/01 10:18:31;;;;;;;12.95;8.25;;;16.30;99.90;;;;;;4976090;28;20371;-47
2022/11/01 10:21:01;;;;;;;15.13;8.60;;;16.30;99.90;;;;;;4987724;28;20339;-47
2022/11/01 10:23:46;;;;;;;15.50;7.47;;;16.30;99.90;;;;;;5008977;28;20034;-50
2022/11/01 10:26:17;;;;;;;14.35;8.32;;;16.40;99.90;;;;;;4984375;28;20066;-47
2022/11/01 10:29:11;;;;;;;15.25;9.65;;;16.40;99.90;;;;;;4969759;28;20479;-47
2022/11/01 10:31:43;;;;;;;10.30;7.55;;;16.40;99.90;;;;;;4969853;28;20026;-46
2022/11/01 10:34:22;;;;;;;12.93;8.88;;;16.40;99.90;;;;;;4970192;28;20069;-47
2022/11/01 10:36:50;;;;;;;11.15;7.60;;;16.40;99.90;;;;;;4969545;28;20031;-49
2022/11/01 10:39:37;;;;;;;14.05;7.60;;;16.40;99.90;;;;;;5005869;28;20077;-47
2022/11/01 10:42:11;;;;;;;12.52;7.45;;;16.50;99.90;;;;;;5008638;28;20493;-48
2022/11/01 10:44:40;;;;;;;12.35;7.03;;;16.50;99.90;;;;;;4975137;28;20240;-47
2022/11/01 10:47:12;;;;;;;11.63;7.50;;;16.70;99.90;;;;;;5008560;28;20505;-48
2022/11/01 10:49:54;;;;;;;10.43;7.20;;;16.80;99.90;;;;;;4974951;28;20032;-48
2022/11/01 10:52:25;;;;;;;11.48;8.15;;;16.80;99.90;;;;;;5008653;28;20024;-47
2022/11/01 10:54:52;;;;;;;15.02;8.15;;;16.90;99.90;;;;;;4978483;28;20074;-49
2022/11/01 10:57:28;;;;;;;11.20;7.80;;;16.90;99.90;;;;;;5008561;28;20092;-48
2022/11/01 10:59:56;;;;;;;9.20;6.80;;;16.90;99.90;;;;;;4979515;28;20061;-47
2022/11/01 11:02:32;;;;;;;10.88;7.22;;;17.00;99.90;;;;;;5008263;28;20044;-47
2022/11/01 11:04:58;;;;;;;10.65;7.03;;;16.90;99.90;;;;;;4974402;28;20057;-48
2022/11/01 11:07:28;;;;;;;12.43;6.93;;;17.00;99.90;;;;;;5008307;28;20498;-48
2022/11/01 11:09:54;;;;;;;10.52;7.68;;;17.00;99.90;;;;;;4979249;28;20069;-50
2022/11/01 11:12:22;;;;;;;10.00;7.35;;;17.00;99.90;;;;;;5008496;28;20053;-47
2022/11/01 11:14:52;;;;;;;13.60;7.70;;;17.10;99.90;;;;;;4994456;28;20211;-47
2022/11/01 11:17:42;;;;;;;10.30;6.68;;;17.20;99.90;;;;;;5012139;28;20108;-48
2022/11/01 11:20:09;;;;;;;13.68;6.72;;;17.30;99.90;;;;;;4986472;28;20026;-49
2022/11/01 11:22:40;;;;;;;11.60;6.22;;;17.30;99.90;;;;;;4992886;28;20394;-50
2022/11/01 11:25:14;;;;;;;11.68;7.82;;;17.40;99.90;;;;;;5009964;28;20026;-48
2022/11/01 11:27:46;;;;;;;10.82;7.55;;;17.40;99.90;;;;;;4973199;28;20054;-50
2022/11/01 11:30:13;;;;;;;12.68;7.60;;;17.50;99.90;;;;;;4987729;28;20037;-52
2022/11/01 11:32:47;;;;;;;10.90;6.70;;;17.50;99.90;;;;;;4992320;28;20467;-54
2022/11/01 11:35:12;;;;;;;12.50;7.00;;;17.60;99.90;;;;;;4972574;28;20559;-51
2022/11/01 11:37:39;;;;;;;12.52;7.32;;;17.70;99.90;;;;;;5010441;28;20109;-52
2022/11/01 11:40:12;;;;;;;14.27;6.25;;;17.80;99.90;;;;;;4997694;28;20129;-52
2022/11/01 11:42:38;;;;;;;11.95;6.15;;;18.00;99.90;;;;;;5011717;28;20367;-52
2022/11/01 11:45:29;;;;;;;9.90;6.25;;;18.10;99.90;;;;;;4997826;28;20038;-53
2022/11/01 11:48:12;;;;;;;10.82;6.70;;;18.20;99.90;;;;;;4991786;28;20430;-53
2022/11/01 11:50:39;;;;;;;11.88;6.03;;;18.10;99.90;;;;;;4994351;28;20044;-55
2022/11/01 11:53:14;;;;;;;10.65;6.15;;;18.10;99.90;;;;;;4991939;28;20042;-51
2022/11/01 11:55:53;;;;;;;9.45;6.13;;;17.90;99.90;;;;;;4994599;28;20073;-53
2022/11/01 11:58:36;;;;;;;13.98;6.25;;;17.90;99.90;;;;;;4992276;28;20030;-56
2022/11/01 12:01:06;;;;;;;9.80;6.32;;;17.90;99.90;;;;;;4985117;28;20455;-55
2022/11/01 12:03:48;;;;;;;9.32;5.95;;;17.90;99.90;;;;;;5010933;28;20038;-54
2022/11/01 12:06:20;;;;;;;8.60;5.72;;;18.00;99.90;;;;;;4980886;28;20034;-56
2022/11/01 12:08:53;;;;;;;11.15;5.63;;;18.10;99.90;;;;;;5010981;28;20037;-53
2022/11/01 12:11:20;;;;;;;9.05;5.35;;;18.20;99.90;;;;;;4990300;28;20371;-51
2022/11/01 12:14:01;;;;;;;10.10;5.78;;;18.20;99.90;;;;;;5010266;28;20041;-52
2022/11/01 12:16:27;;;;;;;7.55;5.30;;;18.20;99.90;;;;;;4989846;28;20034;-53
2022/11/01 12:18:59;;;;;;;10.40;5.97;;;18.10;99.90;;;;;;5010224;28;20034;-55
2022/11/01 12:21:36;;;;;;;8.65;5.38;;;18.10;99.90;;;;;;4988243;28;20030;-54
2022/11/01 12:24:13;;;;;;;10.82;5.53;;;18.00;99.90;;;;;;5010109;28;20069;-54
2022/11/01 12:26:41;;;;;;;13.77;4.85;;;18.00;99.90;;;;;;4972071;28;20431;-50
2022/11/01 12:29:29;;;;;;;10.07;5.05;;;18.00;99.90;;;;;;5009851;28;20037;-52
2022/11/01 12:32:02;;;;;;;5.57;4.32;;;17.90;99.90;;;;;;5010472;28;20037;-50
2022/11/01 12:34:31;;;;;;;7.25;4.55;;;17.90;99.90;;;;;;4972930;28;20532;-50
2022/11/01 12:37:12;;;;;;;6.80;4.40;;;17.90;99.90;;;;;;5010454;28;20053;-54
2022/11/01 12:39:50;;;;;;;6.38;4.10;;;17.90;99.90;;;;;;4977368;28;20046;-56
2022/11/01 12:42:25;;;;;;;10.88;4.20;;;17.90;99.90;;;;;;5010683;28;20026;-53
2022/11/01 12:44:56;;;;;;;8.82;4.85;;;17.90;99.90;;;;;;4980615;28;20022;-55
2022/11/01 12:47:45;;;;;;;8.68;4.07;;;17.90;99.90;;;;;;5010460;28;20083;-53
2022/11/01 12:50:42;;;;;;;8.65;3.58;;;17.80;99.90;;;;;;4986075;28;20026;-53